createdAt,value
2018-12-12T00:00:12.737Z,28.87
2018-12-12T00:02:39.045Z,23.27
2018-12-12T00:05:05.550Z,18.05
2018-12-12T00:07:31.935Z,19.85
2018-12-12T00:09:58.216Z,19.67
2018-12-12T00:12:24.476Z,19.80
2018-12-12T00:14:50.755Z,19.48
2018-12-12T00:17:17.044Z,22.22
2018-12-12T00:19:43.282Z,25.88
2018-12-12T00:22:09.526Z,20.60
2018-12-12T00:24:35.791Z,23.42
2018-12-12T00:27:02.202Z,20.37
2018-12-12T00:29:28.444Z,19.35
2018-12-12T00:31:54.707Z,24.00
2018-12-12T00:34:20.988Z,24.80
2018-12-12T00:36:47.248Z,23.22
2018-12-12T00:39:13.494Z,26.93
2018-12-12T00:41:39.790Z,24.47
2018-12-12T00:44:06.180Z,23.38
2018-12-12T00:46:32.902Z,24.20
2018-12-12T00:48:59.164Z,23.50
2018-12-12T00:51:25.426Z,25.57
2018-12-12T00:53:51.703Z,20.43
2018-12-12T00:56:17.951Z,22.67
2018-12-12T00:58:44.244Z,22.25
2018-12-12T01:01:10.495Z,20.85
2018-12-12T01:03:36.763Z,23.60
2018-12-12T01:06:03.041Z,21.48
2018-12-12T01:08:29.278Z,20.75
2018-12-12T01:13:55.068Z,20.97
2018-12-12T01:16:21.332Z,25.40
2018-12-12T01:18:47.582Z,23.05
2018-12-12T01:21:13.827Z,20.85
2018-12-12T01:23:40.107Z,24.25
2018-12-12T01:26:06.398Z,22.67
2018-12-12T01:28:32.650Z,24.02
2018-12-12T01:30:58.887Z,22.93
2018-12-12T01:33:25.151Z,23.55
2018-12-12T01:35:51.414Z,24.43
2018-12-12T01:38:17.691Z,26.02
2018-12-12T01:40:43.963Z,24.80
2018-12-12T01:43:10.263Z,31.07
2018-12-12T01:45:36.485Z,30.70
2018-12-12T01:48:02.739Z,30.08
2018-12-12T01:50:29.044Z,28.05
2018-12-12T01:52:55.290Z,33.63
2018-12-12T01:55:21.535Z,26.65
2018-12-12T01:57:47.806Z,29.90
2018-12-12T02:00:14.053Z,26.93
2018-12-12T02:02:40.299Z,29.48
2018-12-12T02:05:06.584Z,28.75
2018-12-12T02:07:32.853Z,28.73
2018-12-12T02:09:59.103Z,25.92
2018-12-12T02:12:25.364Z,33.92
2018-12-12T02:14:51.666Z,29.75
2018-12-12T02:17:17.917Z,27.95
2018-12-12T02:19:44.174Z,34.20
2018-12-12T02:22:10.446Z,32.85
2018-12-12T02:24:36.680Z,29.65
2018-12-12T02:27:02.973Z,28.00
2018-12-12T02:29:29.232Z,31.62
2018-12-12T02:31:55.488Z,38.55
2018-12-12T02:34:21.750Z,29.42
2018-12-12T02:36:48.020Z,30.65
2018-12-12T02:39:14.315Z,32.20
2018-12-12T02:41:40.580Z,28.07
2018-12-12T02:44:06.827Z,26.93
2018-12-12T02:46:33.135Z,29.57
2018-12-12T02:48:59.441Z,28.32
2018-12-12T02:51:25.709Z,25.82
2018-12-12T02:53:51.987Z,31.23
2018-12-12T02:56:18.247Z,28.15
2018-12-12T02:58:44.527Z,30.85
2018-12-12T03:01:10.834Z,26.48
2018-12-12T03:03:37.084Z,27.13
2018-12-12T03:06:03.356Z,26.93
2018-12-12T03:08:29.610Z,26.25
2018-12-12T03:10:55.889Z,31.57
2018-12-12T03:13:22.186Z,31.42
2018-12-12T03:15:48.440Z,27.55
2018-12-12T03:18:14.713Z,26.05
2018-12-12T03:20:40.973Z,26.15
2018-12-12T03:23:07.223Z,24.70
2018-12-12T03:25:33.548Z,23.45
2018-12-12T03:27:59.812Z,26.23
2018-12-12T03:30:26.083Z,33.48
2018-12-12T03:32:52.426Z,24.10
2018-12-12T03:35:18.672Z,29.63
2018-12-12T03:37:44.988Z,26.15
2018-12-12T03:40:11.698Z,30.43
2018-12-12T03:42:38.390Z,26.45
2018-12-12T03:45:04.895Z,25.10
2018-12-12T03:47:31.155Z,29.90
2018-12-12T03:49:57.410Z,27.77
2018-12-12T03:52:23.692Z,29.75
2018-12-12T03:54:49.924Z,30.55
2018-12-12T03:57:16.188Z,28.52
2018-12-12T03:59:42.467Z,26.42
2018-12-12T04:02:08.716Z,25.52
2018-12-12T04:04:35.010Z,28.65
2018-12-12T04:07:01.265Z,25.20
2018-12-12T04:09:27.561Z,24.82
2018-12-12T04:11:53.812Z,22.55
2018-12-12T04:14:20.071Z,27.80
2018-12-12T04:16:46.374Z,27.65
2018-12-12T04:19:12.769Z,30.60
2018-12-12T04:21:39.031Z,34.45
2018-12-12T04:24:05.294Z,37.05
2018-12-12T04:26:31.598Z,26.87
2018-12-12T04:28:57.900Z,29.50
2018-12-12T04:31:24.184Z,27.75
2018-12-12T04:33:50.489Z,33.23
2018-12-12T04:36:16.739Z,28.65
2018-12-12T04:38:43.020Z,33.58
2018-12-12T04:41:09.299Z,29.37
2018-12-12T04:43:35.546Z,27.73
2018-12-12T04:46:01.783Z,35.25
2018-12-12T04:48:28.179Z,37.23
2018-12-12T04:50:54.470Z,29.60
2018-12-12T04:53:20.776Z,30.75
2018-12-12T04:55:47.075Z,28.83
2018-12-12T04:58:13.367Z,28.52
2018-12-12T05:00:39.680Z,32.98
2018-12-12T05:03:06.208Z,30.20
2018-12-12T05:05:32.484Z,30.68
2018-12-12T05:07:58.806Z,27.30
2018-12-12T05:10:25.100Z,36.23
2018-12-12T05:12:51.379Z,32.93
2018-12-12T05:15:17.688Z,31.12
2018-12-12T05:17:43.944Z,31.95
2018-12-12T05:20:10.238Z,37.05
2018-12-12T05:22:36.557Z,29.77
2018-12-12T05:25:03.524Z,34.27
2018-12-12T05:27:29.842Z,34.35
2018-12-12T05:29:56.106Z,33.53
2018-12-12T05:32:22.386Z,36.55
2018-12-12T05:34:48.631Z,28.65
2018-12-12T05:37:14.997Z,36.15
2018-12-12T05:39:41.296Z,31.12
2018-12-12T05:42:07.573Z,31.97
2018-12-12T05:44:33.858Z,33.40
2018-12-12T05:47:00.122Z,33.00
2018-12-12T05:49:26.422Z,36.25
2018-12-12T05:51:52.719Z,32.10
2018-12-12T05:54:18.995Z,28.02
2018-12-12T05:56:45.258Z,34.85
2018-12-12T05:59:11.531Z,32.65
2018-12-12T06:01:37.874Z,34.45
2018-12-12T06:04:04.178Z,27.35
2018-12-12T06:06:30.487Z,36.65
2018-12-12T06:08:56.778Z,28.85
2018-12-12T06:11:23.100Z,35.58
2018-12-12T06:13:49.387Z,29.48
2018-12-12T06:16:15.684Z,34.05
2018-12-12T06:18:41.938Z,31.77
2018-12-12T06:21:08.227Z,27.50
2018-12-12T06:23:34.509Z,28.90
2018-12-12T06:26:00.773Z,29.37
2018-12-12T06:28:27.051Z,28.87
2018-12-12T06:30:53.352Z,26.82
2018-12-12T06:33:19.610Z,29.02
2018-12-12T06:35:45.874Z,34.08
2018-12-12T06:38:12.156Z,27.87
2018-12-12T06:40:38.544Z,35.43
2018-12-12T06:43:04.815Z,31.00
2018-12-12T06:45:31.080Z,32.10
2018-12-12T06:47:57.336Z,30.48
2018-12-12T06:50:23.605Z,32.83
2018-12-12T06:52:49.893Z,30.25
2018-12-12T06:55:16.176Z,30.23
2018-12-12T06:57:42.455Z,27.10
2018-12-12T07:00:08.902Z,30.43
2018-12-12T07:02:35.199Z,35.88
2018-12-12T07:05:01.499Z,33.73
2018-12-12T07:07:27.994Z,33.13
2018-12-12T07:09:54.267Z,32.80
2018-12-12T07:12:20.539Z,32.95
2018-12-12T07:14:46.803Z,30.57
2018-12-12T07:17:13.101Z,32.33
2018-12-12T07:19:39.354Z,28.38
2018-12-12T07:22:05.658Z,35.20
2018-12-12T07:24:31.919Z,32.45
2018-12-12T07:26:58.186Z,31.40
2018-12-12T07:29:24.475Z,28.62
2018-12-12T07:31:50.751Z,29.25
2018-12-12T07:34:17.219Z,28.65
2018-12-12T07:36:43.467Z,30.82
2018-12-12T07:39:09.789Z,27.52
2018-12-12T07:41:36.263Z,30.68
2018-12-12T07:44:02.802Z,37.80
2018-12-12T07:46:29.476Z,29.30
2018-12-12T07:48:55.777Z,41.53
2018-12-12T07:51:22.035Z,31.97
2018-12-12T07:53:48.296Z,39.92
2018-12-12T07:56:14.558Z,42.30
2018-12-12T07:58:40.871Z,31.77
2018-12-12T08:01:07.117Z,29.23
2018-12-12T08:03:33.409Z,49.13
2018-12-12T08:05:59.679Z,35.20
2018-12-12T08:08:25.935Z,30.25
2018-12-12T08:10:52.259Z,32.13
2018-12-12T08:13:18.525Z,31.00
2018-12-12T08:15:44.817Z,29.02
2018-12-12T08:18:11.103Z,37.40
2018-12-12T08:20:37.375Z,34.48
2018-12-12T08:23:03.851Z,31.00
2018-12-12T08:25:30.386Z,27.48
2018-12-12T08:27:56.662Z,26.80
2018-12-12T08:30:22.944Z,29.92
2018-12-12T08:32:49.187Z,31.45
2018-12-12T08:35:15.482Z,28.95
2018-12-12T08:37:41.745Z,24.90
2018-12-12T08:40:08.199Z,27.73
2018-12-12T08:42:34.611Z,24.27
2018-12-12T08:45:00.941Z,24.27
2018-12-12T08:47:27.217Z,25.37
2018-12-12T08:49:53.459Z,26.77
2018-12-12T08:52:19.716Z,28.85
2018-12-12T08:54:45.967Z,24.90
2018-12-12T08:57:12.579Z,27.35
2018-12-12T08:59:38.874Z,30.92
2018-12-12T09:02:05.536Z,26.33
2018-12-12T09:04:31.947Z,25.95
2018-12-12T09:06:58.224Z,25.88
2018-12-12T09:09:24.498Z,25.15
2018-12-12T09:11:50.734Z,24.90
2018-12-12T09:14:16.982Z,23.65
2018-12-12T09:16:43.279Z,19.77
2018-12-12T09:19:09.567Z,23.87
2018-12-12T09:21:35.929Z,24.37
2018-12-12T09:24:02.265Z,28.02
2018-12-12T09:26:28.553Z,31.73
2018-12-12T09:28:54.803Z,21.75
2018-12-12T09:31:21.058Z,29.98
2018-12-12T09:33:47.339Z,21.68
2018-12-12T09:36:13.589Z,18.95
2018-12-12T09:38:39.861Z,16.50
2018-12-12T09:41:06.148Z,11.93
2018-12-12T09:43:32.884Z,9.33
2018-12-12T09:45:59.230Z,9.70
2018-12-12T09:48:25.501Z,8.55
2018-12-12T09:50:51.788Z,8.43
2018-12-12T09:53:18.086Z,9.98
2018-12-12T09:55:44.477Z,13.05
2018-12-12T09:58:10.757Z,14.10
2018-12-12T10:00:37.043Z,10.32
2018-12-12T10:03:03.307Z,8.93
2018-12-12T10:05:29.846Z,11.60
2018-12-12T10:07:56.109Z,9.90
2018-12-12T10:10:22.351Z,12.05
2018-12-12T10:12:48.612Z,12.93
2018-12-12T10:15:14.927Z,12.47
2018-12-12T10:17:41.211Z,14.28
2018-12-12T10:20:07.482Z,10.15
2018-12-12T10:22:33.752Z,6.87
2018-12-12T10:25:00.017Z,7.72
2018-12-12T10:27:26.288Z,6.53
2018-12-12T10:29:52.603Z,6.62
2018-12-12T10:32:18.923Z,13.38
2018-12-12T10:34:45.251Z,5.67
2018-12-12T10:37:11.521Z,4.08
2018-12-12T10:39:37.775Z,5.35
2018-12-12T10:42:04.112Z,5.78
2018-12-12T10:44:30.339Z,5.60
2018-12-12T10:46:56.587Z,5.10
2018-12-12T10:49:22.867Z,5.30
2018-12-12T10:51:49.153Z,5.67
2018-12-12T10:54:15.434Z,6.10
2018-12-12T10:56:41.668Z,4.80
2018-12-12T10:59:07.991Z,5.12
2018-12-12T11:01:40.359Z,19.98
2018-12-12T11:04:06.595Z,6.70
2018-12-12T11:06:32.834Z,4.67
2018-12-12T11:08:59.145Z,4.90
2018-12-12T11:11:25.431Z,3.92
2018-12-12T11:13:51.691Z,4.17
2018-12-12T11:16:17.959Z,3.52
2018-12-12T11:18:44.251Z,4.35
2018-12-12T11:21:10.487Z,4.75
2018-12-12T11:23:36.771Z,4.87
2018-12-12T11:26:03.046Z,4.50
2018-12-12T11:28:29.293Z,4.78
2018-12-12T11:30:55.620Z,4.60
2018-12-12T11:33:21.875Z,5.00
2018-12-12T11:35:48.116Z,4.72
2018-12-12T11:38:14.411Z,5.03
2018-12-12T11:40:40.690Z,4.62
2018-12-12T11:43:06.958Z,6.20
2018-12-12T11:45:33.240Z,12.00
2018-12-12T11:47:59.613Z,8.90
2018-12-12T11:50:25.858Z,10.45
2018-12-12T11:52:52.155Z,7.90
2018-12-12T11:55:18.451Z,6.25
2018-12-12T11:57:44.754Z,17.40
2018-12-12T12:00:11.206Z,17.42
2018-12-12T12:02:37.494Z,10.72
2018-12-12T12:05:04.791Z,6.60
2018-12-12T12:07:31.052Z,6.00
2018-12-12T12:09:57.334Z,5.33
2018-12-12T12:12:23.573Z,5.92
2018-12-12T12:14:49.839Z,4.37
2018-12-12T12:17:16.103Z,8.13
2018-12-12T12:19:42.373Z,4.60
2018-12-12T12:22:08.656Z,4.22
2018-12-12T12:24:34.913Z,8.98
2018-12-12T12:27:01.175Z,7.50
2018-12-12T12:29:27.442Z,7.05
2018-12-12T12:31:53.691Z,5.30
2018-12-12T12:34:19.971Z,5.40
2018-12-12T12:36:46.665Z,7.30
2018-12-12T12:39:12.917Z,5.85
2018-12-12T12:41:39.216Z,6.20
2018-12-12T12:44:05.509Z,5.70
2018-12-12T12:46:31.772Z,5.65
2018-12-12T12:48:58.059Z,5.30
2018-12-12T12:51:24.299Z,6.67
2018-12-12T12:53:50.563Z,5.70
2018-12-12T12:56:16.850Z,5.67
2018-12-12T12:58:43.110Z,5.33
2018-12-12T13:01:09.384Z,4.40
2018-12-12T13:03:35.639Z,6.53
2018-12-12T13:06:01.921Z,6.15
2018-12-12T13:08:28.220Z,7.37
2018-12-12T13:10:54.460Z,5.62
2018-12-12T13:13:21.178Z,6.58
2018-12-12T13:15:48.083Z,5.35
2018-12-12T13:18:14.504Z,5.45
2018-12-12T13:20:40.800Z,5.08
2018-12-12T13:23:07.062Z,5.22
2018-12-12T13:25:33.326Z,8.30
2018-12-12T13:27:59.571Z,6.10
2018-12-12T13:30:25.826Z,5.90
2018-12-12T13:32:52.087Z,5.75
2018-12-12T13:35:18.343Z,4.95
2018-12-12T13:37:44.616Z,7.47
2018-12-12T13:40:11.006Z,5.78
2018-12-12T13:42:37.429Z,5.62
2018-12-12T13:45:04.418Z,4.37
2018-12-12T13:47:30.711Z,3.40
2018-12-12T13:49:56.990Z,4.17
2018-12-12T13:52:23.258Z,3.15
2018-12-12T13:54:49.535Z,4.08
2018-12-12T13:57:15.811Z,4.28
2018-12-12T13:59:42.088Z,6.47
2018-12-12T14:02:08.366Z,4.70
2018-12-12T14:04:34.631Z,4.78
2018-12-12T14:07:01.096Z,5.35
2018-12-12T14:09:27.354Z,6.50
2018-12-12T14:11:53.700Z,5.45
2018-12-12T14:14:19.980Z,7.08
2018-12-12T14:16:46.247Z,8.98
2018-12-12T14:19:12.517Z,11.73
2018-12-12T14:21:38.875Z,10.95
2018-12-12T14:24:05.165Z,7.42
2018-12-12T14:26:31.510Z,5.85
2018-12-12T14:28:57.825Z,4.95
2018-12-12T14:31:24.109Z,5.30
2018-12-12T14:33:50.388Z,8.30
2018-12-12T14:36:16.748Z,7.85
2018-12-12T14:38:43.017Z,5.62
2018-12-12T14:41:09.289Z,4.47
2018-12-12T14:43:35.572Z,3.60
2018-12-12T14:46:01.870Z,4.53
2018-12-12T14:48:30.377Z,4.10
2018-12-12T14:50:56.502Z,4.78
2018-12-12T14:53:22.861Z,4.70
2018-12-12T14:55:49.149Z,3.40
2018-12-12T14:58:15.455Z,6.33
2018-12-12T15:00:41.695Z,4.40
2018-12-12T15:03:08.089Z,5.85
2018-12-12T15:05:34.479Z,5.65
2018-12-12T15:08:00.736Z,4.47
2018-12-12T15:10:27.073Z,6.35
2018-12-12T15:12:53.430Z,5.90
2018-12-12T15:15:19.707Z,8.73
2018-12-12T15:17:46.026Z,5.62
2018-12-12T15:20:12.443Z,6.65
2018-12-12T15:22:38.786Z,7.50
2018-12-12T15:25:05.212Z,4.37
2018-12-12T15:27:31.511Z,5.50
2018-12-12T15:29:57.895Z,4.05
2018-12-12T15:32:24.769Z,5.62
2018-12-12T15:34:51.062Z,4.40
2018-12-12T15:37:17.446Z,4.90
2018-12-12T15:39:44.879Z,4.20
2018-12-12T15:42:13.624Z,4.35
2018-12-12T15:44:42.284Z,4.15
2018-12-12T15:47:09.914Z,5.37
2018-12-12T15:49:36.216Z,6.22
2018-12-12T15:52:02.655Z,6.58
2018-12-12T15:54:28.987Z,11.18
2018-12-12T15:56:55.259Z,9.15
2018-12-12T15:59:21.600Z,11.10
2018-12-12T16:01:47.911Z,13.15
2018-12-12T16:04:14.214Z,13.62
2018-12-12T16:06:40.492Z,12.13
2018-12-12T16:09:07.071Z,13.85
2018-12-12T16:11:33.339Z,15.00
2018-12-12T16:13:59.603Z,15.10
2018-12-12T16:16:25.900Z,11.83
2018-12-12T16:18:52.207Z,9.30
2018-12-12T16:21:18.514Z,10.08
2018-12-12T16:23:44.786Z,10.10
2018-12-12T16:26:11.104Z,10.00
2018-12-12T16:28:37.403Z,8.85
2018-12-12T16:31:03.763Z,5.60
2018-12-12T16:33:30.056Z,5.97
2018-12-12T16:35:56.367Z,5.72
2018-12-12T16:38:22.682Z,5.08
2018-12-12T16:40:48.931Z,5.60
2018-12-12T16:43:15.322Z,6.85
2018-12-12T16:45:41.598Z,5.85
2018-12-12T16:48:07.918Z,5.87
2018-12-12T16:50:34.216Z,5.78
2018-12-12T16:53:00.511Z,6.78
2018-12-12T16:55:26.792Z,5.92
2018-12-12T16:57:53.125Z,7.30
2018-12-12T17:00:19.383Z,5.30
2018-12-12T17:02:45.659Z,5.28
2018-12-12T17:05:11.974Z,6.37
2018-12-12T17:07:38.212Z,5.00
2018-12-12T17:10:04.972Z,5.15
2018-12-12T17:12:31.241Z,7.87
2018-12-12T17:14:57.494Z,5.50
2018-12-12T17:17:23.783Z,5.75
2018-12-12T17:19:50.189Z,16.52
2018-12-12T17:22:16.469Z,6.78
2018-12-12T17:24:42.718Z,6.60
2018-12-12T17:27:09.024Z,5.72
2018-12-12T17:29:35.282Z,6.30
2018-12-12T17:32:01.589Z,6.55
2018-12-12T17:34:27.910Z,5.87
2018-12-12T17:36:54.244Z,5.47
2018-12-12T17:39:20.526Z,5.70
2018-12-12T17:41:46.827Z,5.78
2018-12-12T17:44:13.446Z,7.05
2018-12-12T17:46:40.721Z,6.97
2018-12-12T17:49:06.989Z,8.25
2018-12-12T17:51:33.256Z,7.00
2018-12-12T17:53:59.663Z,7.12
2018-12-12T17:56:26.092Z,7.55
2018-12-12T17:58:52.715Z,7.12
2018-12-12T18:01:19.011Z,9.33
2018-12-12T18:03:45.359Z,7.25
2018-12-12T18:06:11.789Z,8.65
2018-12-12T18:08:38.048Z,8.50
2018-12-12T18:11:04.421Z,8.33
2018-12-12T18:13:30.822Z,11.57
2018-12-12T18:15:57.104Z,10.32
2018-12-12T18:18:23.390Z,11.25
2018-12-12T18:20:49.706Z,33.20
2018-12-12T18:23:16.033Z,17.30
2018-12-12T18:25:42.326Z,12.82
2018-12-12T18:28:08.722Z,17.12
2018-12-12T18:30:35.075Z,20.08
2018-12-12T18:33:01.374Z,16.35
2018-12-12T18:35:27.640Z,14.98
2018-12-12T18:37:53.934Z,9.88
2018-12-12T18:40:20.279Z,9.70
2018-12-12T18:42:46.600Z,8.40
2018-12-12T18:45:13.009Z,8.00
2018-12-12T18:47:39.564Z,7.53
2018-12-12T18:50:07.164Z,7.50
2018-12-12T18:52:33.451Z,7.75
2018-12-12T18:54:59.727Z,7.28
2018-12-12T18:57:26.141Z,7.42
2018-12-12T18:59:52.546Z,10.82
2018-12-12T19:02:18.863Z,8.85
2018-12-12T19:04:45.504Z,7.90
2018-12-12T19:07:11.836Z,8.95
2018-12-12T19:09:38.204Z,8.65
2018-12-12T19:12:04.466Z,16.93
2018-12-12T19:14:30.758Z,13.65
2018-12-12T19:16:57.213Z,8.90
2018-12-12T19:19:24.369Z,10.00
2018-12-12T19:21:50.780Z,9.68
2018-12-12T19:24:17.377Z,8.65
2018-12-12T19:26:43.937Z,8.13
2018-12-12T19:29:10.237Z,10.60
2018-12-12T19:31:36.643Z,9.80
2018-12-12T19:34:03.200Z,7.40
2018-12-12T19:36:29.477Z,7.55
2018-12-12T19:38:55.809Z,7.05
2018-12-12T19:41:22.135Z,7.95
2018-12-12T19:43:48.521Z,7.65
2018-12-12T19:46:14.801Z,7.40
2018-12-12T19:48:41.226Z,6.72
2018-12-12T19:51:07.559Z,6.35
2018-12-12T19:53:34.107Z,5.58
2018-12-12T19:56:00.483Z,5.30
2018-12-12T19:58:26.812Z,5.47
2018-12-12T20:00:53.144Z,4.85
2018-12-12T20:03:19.675Z,4.87
2018-12-12T20:05:45.989Z,5.30
2018-12-12T20:08:12.362Z,5.00
2018-12-12T20:10:38.675Z,5.35
2018-12-12T20:13:05.224Z,4.10
2018-12-12T20:15:37.778Z,5.08
2018-12-12T20:18:04.079Z,4.78
2018-12-12T20:20:31.156Z,4.85
2018-12-12T20:22:57.718Z,4.67
2018-12-12T20:25:23.957Z,5.03
2018-12-12T20:27:50.292Z,5.15
2018-12-12T20:30:16.552Z,4.60
2018-12-12T20:32:42.808Z,4.50
2018-12-12T20:35:09.152Z,4.80
2018-12-12T20:37:35.398Z,4.97
2018-12-12T20:40:02.886Z,7.03
2018-12-12T20:42:29.174Z,4.87
2018-12-12T20:44:56.753Z,5.22
2018-12-12T20:47:23.077Z,5.30
2018-12-12T20:49:49.384Z,5.37
2018-12-12T20:52:15.790Z,6.62
2018-12-12T20:54:46.649Z,5.90
2018-12-12T20:57:13.162Z,5.90
2018-12-12T20:59:39.452Z,8.75
2018-12-12T21:02:05.779Z,6.35
2018-12-12T21:04:32.115Z,6.10
2018-12-12T21:06:58.375Z,7.60
2018-12-12T21:09:24.664Z,9.40
2018-12-12T21:11:51.022Z,7.00
2018-12-12T21:14:17.336Z,6.33
2018-12-12T21:16:43.638Z,5.05
2018-12-12T21:19:10.049Z,5.75
2018-12-12T21:21:36.380Z,6.67
2018-12-12T21:24:02.839Z,6.53
2018-12-12T21:26:29.150Z,5.45
2018-12-12T21:28:55.479Z,5.35
2018-12-12T21:31:21.796Z,5.28
2018-12-12T21:33:48.113Z,5.67
2018-12-12T21:36:14.403Z,7.03
2018-12-12T21:38:40.668Z,5.83
2018-12-12T21:41:06.999Z,7.12
2018-12-12T21:43:33.300Z,6.00
2018-12-12T21:45:59.563Z,6.00
2018-12-12T21:48:25.867Z,6.00
2018-12-12T21:50:52.123Z,5.75
2018-12-12T21:53:18.480Z,6.83
2018-12-12T21:55:44.758Z,5.75
2018-12-12T21:58:11.069Z,6.20
2018-12-12T22:00:37.365Z,5.05
2018-12-12T22:03:03.674Z,5.60
2018-12-12T22:05:29.999Z,8.45
2018-12-12T22:07:56.274Z,6.10
2018-12-12T22:10:22.558Z,6.83
2018-12-12T22:12:48.865Z,6.78
2018-12-12T22:15:15.167Z,10.05
2018-12-12T22:17:41.451Z,6.40
2018-12-12T22:20:07.756Z,8.63
2018-12-12T22:22:34.038Z,8.38
2018-12-12T22:25:00.319Z,8.15
2018-12-12T22:27:26.642Z,6.92
2018-12-12T22:29:52.943Z,6.22
2018-12-12T22:32:19.252Z,8.30
2018-12-12T22:34:45.677Z,8.13
2018-12-12T22:37:11.982Z,6.37
2018-12-12T22:39:38.270Z,7.97
2018-12-12T22:42:04.539Z,7.42
2018-12-12T22:44:30.815Z,8.40
2018-12-12T22:46:57.124Z,7.30
2018-12-12T22:49:23.403Z,9.30
2018-12-12T22:51:49.854Z,9.40
2018-12-12T22:54:16.168Z,8.70
2018-12-12T22:56:42.472Z,9.10
2018-12-12T22:59:08.760Z,8.30
2018-12-12T23:01:35.206Z,9.05
2018-12-12T23:04:01.555Z,9.63
2018-12-12T23:06:27.852Z,9.58
2018-12-12T23:08:54.181Z,10.55
2018-12-12T23:11:20.424Z,9.25
2018-12-12T23:13:46.723Z,9.50
2018-12-12T23:16:13.006Z,11.85
2018-12-12T23:18:39.312Z,15.32
2018-12-12T23:21:05.582Z,11.88
2018-12-12T23:23:31.892Z,9.15
2018-12-12T23:25:58.174Z,8.53
2018-12-12T23:28:24.437Z,11.05
2018-12-12T23:30:50.739Z,9.90
2018-12-12T23:33:16.993Z,8.35
2018-12-12T23:35:43.268Z,8.00
2018-12-12T23:38:09.552Z,10.32
2018-12-12T23:40:35.840Z,12.63
2018-12-12T23:43:02.162Z,9.43
2018-12-12T23:45:28.492Z,8.75
2018-12-12T23:47:54.787Z,8.80
2018-12-12T23:50:21.042Z,9.90
2018-12-12T23:52:47.366Z,10.75
2018-12-12T23:55:13.627Z,11.30
2018-12-12T23:57:39.915Z,11.50
